Time;durP1;ratioP1;P1;durP2;ratioP2;P2;SDS_P1;SDS_P2;PMS_P1;PMS_P2;Temp;Humidity;BMP_temperature;BMP_pressure;BME280_temperature;BME280_humidity;BME280_pressure;Samples;Min_cycle;Max_cycle;Signal;HPM_P1;HPM_P2
2022/10/30 13:32:00;;;;;;;59.58;55.47;;;23.10;99.90;;;;;;728436;22;21991;-57
2022/10/30 13:34:35;;;;;;;40.67;37.87;;;23.10;99.90;;;;;;5076718;28;20953;-54
2022/10/30 13:37:21;;;;;;;39.42;36.50;;;23.10;99.90;;;;;;5078205;28;20455;-57
2022/10/30 13:40:19;;;;;;;53.38;49.08;;;23.40;99.90;;;;;;5077569;28;20462;-58
2022/10/30 13:43:01;;;;;;;50.22;46.47;;;23.40;99.90;;;;;;5077975;28;20427;-53
2022/10/30 13:45:48;;;;;;;43.30;40.30;;;23.00;99.90;;;;;;5077189;28;20853;-55
2022/10/30 13:48:41;;;;;;;37.30;34.45;;;22.80;99.90;;;;;;5076010;28;20386;-56
2022/10/30 13:51:30;;;;;;;42.35;39.00;;;22.70;99.90;;;;;;5076719;28;20406;-57
2022/10/30 13:54:22;;;;;;;33.95;31.65;;;22.70;99.90;;;;;;5077271;28;20981;-53
2022/10/30 13:56:49;;;;;;;45.97;42.65;;;22.80;99.90;;;;;;5077980;28;20378;-56
2022/10/30 13:59:45;;;;;;;35.25;32.65;;;22.80;99.90;;;;;;5074527;28;20374;-58
2022/10/30 14:02:18;;;;;;;33.15;30.67;;;22.80;99.90;;;;;;5075400;28;20386;-54
2022/10/30 14:05:11;;;;;;;31.77;29.52;;;22.80;99.90;;;;;;5074804;28;20394;-51
2022/10/30 14:07:55;;;;;;;30.02;28.00;;;22.80;99.90;;;;;;5075772;28;20431;-57
2022/10/30 14:10:42;;;;;;;36.00;33.00;;;23.00;99.90;;;;;;5076384;28;20690;-55
2022/10/30 14:13:26;;;;;;;35.38;32.92;;;22.90;99.90;;;;;;5075989;28;20454;-57
2022/10/30 14:16:05;;;;;;;30.40;28.30;;;23.10;99.90;;;;;;5075492;28;20781;-53
2022/10/30 14:18:57;;;;;;;40.40;37.20;;;23.20;99.90;;;;;;5073058;28;20465;-56
2022/10/30 14:21:53;;;;;;;37.28;34.83;;;23.30;99.90;;;;;;5074061;28;20428;-55
2022/10/30 14:24:23;;;;;;;48.28;44.97;;;23.50;99.90;;;;;;5072691;28;20382;-55
2022/10/30 14:26:52;;;;;;;46.42;43.38;;;23.40;99.90;;;;;;5071983;28;20388;-58
2022/10/30 14:29:33;;;;;;;44.15;41.30;;;23.40;99.90;;;;;;5070921;28;20389;-56
2022/10/30 14:31:59;;;;;;;42.28;39.25;;;23.30;99.90;;;;;;5068712;28;20406;-54
2022/10/30 14:34:42;;;;;;;43.50;40.20;;;23.40;99.90;;;;;;5070015;28;20475;-55
2022/10/30 14:37:08;;;;;;;44.97;41.75;;;23.40;99.90;;;;;;5067110;28;20606;-52
2022/10/30 14:39:44;;;;;;;41.80;38.88;;;23.20;99.90;;;;;;5050124;28;20474;-53
2022/10/30 14:42:42;;;;;;;37.50;34.78;;;23.20;99.90;;;;;;5047636;28;20624;-54
2022/10/30 14:45:25;;;;;;;39.67;36.50;;;23.00;99.90;;;;;;5046529;28;20675;-53
2022/10/30 14:47:56;;;;;;;38.67;35.87;;;23.00;99.90;;;;;;5049312;28;20550;-54
2022/10/30 14:50:24;;;;;;;39.88;36.67;;;23.00;99.90;;;;;;5049364;28;20399;-57
2022/10/30 14:53:16;;;;;;;41.05;37.83;;;23.00;99.90;;;;;;5058322;28;20384;-56
2022/10/30 14:56:11;;;;;;;45.33;41.80;;;22.80;99.90;;;;;;5062159;28;20830;-56
2022/10/30 14:58:37;;;;;;;44.38;40.97;;;22.70;99.90;;;;;;5056326;28;20472;-57
2022/10/30 15:01:03;;;;;;;37.00;33.95;;;22.70;99.90;;;;;;5053595;28;20739;-55
2022/10/30 15:04:02;;;;;;;36.43;33.77;;;22.50;99.90;;;;;;5053022;28;20395;-55
2022/10/30 15:07:10;;;;;;;37.90;35.00;;;22.40;99.90;;;;;;5053537;28;20384;-55
2022/10/30 15:10:02;;;;;;;31.02;28.33;;;22.30;99.90;;;;;;5052942;28;20383;-54
2022/10/30 15:12:56;;;;;;;28.10;25.60;;;22.20;99.90;;;;;;5051408;28;20640;-54
2022/10/30 15:15:21;;;;;;;31.15;28.48;;;22.20;99.90;;;;;;5052028;28;20384;-57
2022/10/30 15:17:53;;;;;;;31.48;28.73;;;22.10;99.90;;;;;;5052275;28;20579;-56
2022/10/30 15:20:25;;;;;;;27.63;25.08;;;21.90;99.90;;;;;;5051378;28;20589;-54
2022/10/30 15:22:54;;;;;;;26.58;24.17;;;21.80;99.90;;;;;;5054332;28;20399;-54
2022/10/30 15:25:23;;;;;;;30.23;27.30;;;21.70;99.90;;;;;;5053218;28;20407;-54
2022/10/30 15:27:52;;;;;;;24.05;21.65;;;21.60;99.90;;;;;;5052154;28;20759;-57
2022/10/30 15:30:21;;;;;;;24.45;22.27;;;21.40;99.90;;;;;;5053852;28;20663;-55
2022/10/30 15:32:46;;;;;;;24.67;22.08;;;21.40;99.90;;;;;;5052705;28;20933;-55
2022/10/30 15:35:30;;;;;;;23.02;20.73;;;21.30;99.90;;;;;;5053175;28;20761;-57
2022/10/30 15:37:56;;;;;;;21.80;19.63;;;21.20;99.90;;;;;;5049899;28;21094;-57
2022/10/30 15:40:22;;;;;;;18.92;16.92;;;21.30;99.90;;;;;;5052592;28;20387;-54
2022/10/30 15:42:49;;;;;;;21.60;19.55;;;21.20;99.90;;;;;;5054484;28;20380;-55
2022/10/30 15:45:18;;;;;;;22.77;18.52;;;21.20;99.90;;;;;;5054086;28;20386;-54
2022/10/30 15:47:57;;;;;;;19.95;17.05;;;21.10;99.90;;;;;;5053010;28;20412;-54
2022/10/30 15:50:23;;;;;;;18.98;15.07;;;21.00;99.90;;;;;;5057033;28;20395;-55
2022/10/30 15:52:49;;;;;;;18.00;14.77;;;21.00;99.90;;;;;;5060518;28;20498;-57
2022/10/30 15:55:21;;;;;;;17.13;14.10;;;21.00;99.90;;;;;;5060046;28;20399;-57
2022/10/30 15:57:50;;;;;;;17.58;15.25;;;21.00;99.90;;;;;;5056336;28;20483;-56
2022/10/30 16:00:26;;;;;;;18.15;15.32;;;20.90;99.90;;;;;;5054909;28;20376;-55
2022/10/30 16:02:59;;;;;;;18.67;15.75;;;20.80;99.90;;;;;;5056970;28;20396;-56
2022/10/30 16:05:25;;;;;;;18.02;15.25;;;20.70;99.90;;;;;;5057666;28;20511;-56
2022/10/30 16:07:55;;;;;;;18.35;16.48;;;20.70;99.90;;;;;;5058031;28;20395;-55
2022/10/30 16:10:22;;;;;;;21.10;17.73;;;20.70;99.90;;;;;;5058337;28;20391;-55
2022/10/30 16:12:48;;;;;;;19.13;16.25;;;20.60;99.90;;;;;;5059111;28;20632;-57
2022/10/30 16:15:32;;;;;;;20.57;17.17;;;20.50;99.90;;;;;;5060389;28;20993;-55
2022/10/30 16:18:25;;;;;;;21.55;15.40;;;20.50;99.90;;;;;;5060578;28;20388;-55
2022/10/30 16:20:56;;;;;;;19.40;15.15;;;20.40;99.90;;;;;;5059197;28;20396;-57
2022/10/30 16:23:23;;;;;;;19.77;15.68;;;20.50;99.90;;;;;;5059972;28;20395;-56
2022/10/30 16:25:54;;;;;;;20.70;17.13;;;20.40;99.90;;;;;;5057706;28;20387;-55
2022/10/30 16:28:26;;;;;;;20.45;16.48;;;20.30;99.90;;;;;;5059657;28;20870;-57
2022/10/30 16:30:52;;;;;;;18.67;16.05;;;20.20;99.90;;;;;;5060213;28;20408;-54
2022/10/30 16:33:24;;;;;;;20.73;15.30;;;20.20;99.90;;;;;;5059118;28;20847;-55
2022/10/30 16:35:51;;;;;;;19.50;16.67;;;20.20;99.90;;;;;;5057422;28;20519;-54
2022/10/30 16:38:18;;;;;;;19.70;14.52;;;20.10;99.90;;;;;;5057269;28;20395;-57
2022/10/30 16:40:43;;;;;;;18.55;16.50;;;20.10;99.90;;;;;;5058120;28;20629;-57
2022/10/30 16:43:27;;;;;;;20.08;15.48;;;20.00;99.90;;;;;;5055416;28;20469;-58
2022/10/30 16:45:54;;;;;;;20.20;15.73;;;19.90;99.90;;;;;;5053430;28;20798;-55
2022/10/30 16:48:26;;;;;;;23.77;17.50;;;19.90;99.90;;;;;;5053266;28;20399;-57
2022/10/30 16:50:57;;;;;;;17.97;13.70;;;19.70;99.90;;;;;;5048928;28;20416;-57
2022/10/30 16:53:24;;;;;;;19.13;14.57;;;19.70;99.90;;;;;;5048927;28;20449;-57
2022/10/30 16:55:50;;;;;;;20.67;16.17;;;19.70;99.90;;;;;;5050444;28;20859;-57
2022/10/30 16:58:17;;;;;;;19.42;15.65;;;19.70;99.90;;;;;;5046599;28;20599;-56
2022/10/30 17:00:55;;;;;;;25.15;16.38;;;19.70;99.90;;;;;;5047515;28;20422;-56
2022/10/30 17:03:25;;;;;;;19.33;15.23;;;19.50;99.90;;;;;;5047637;28;20498;-57
2022/10/30 17:06:05;;;;;;;20.98;15.15;;;19.50;99.90;;;;;;5049283;28;20391;-56
2022/10/30 17:08:42;;;;;;;23.70;14.80;;;19.40;99.90;;;;;;5046652;28;20651;-56
2022/10/30 17:11:17;;;;;;;18.70;14.77;;;19.40;99.90;;;;;;5044094;28;20791;-56
2022/10/30 17:13:57;;;;;;;22.60;16.13;;;19.50;99.90;;;;;;5045204;28;20431;-57
2022/10/30 17:16:31;;;;;;;20.57;14.37;;;19.40;99.90;;;;;;5043707;28;20414;-55
2022/10/30 17:19:21;;;;;;;21.00;14.77;;;19.40;99.90;;;;;;5045689;28;20387;-56
2022/10/30 17:21:51;;;;;;;22.33;15.73;;;19.40;99.90;;;;;;5047270;28;20384;-53
2022/10/30 17:24:24;;;;;;;23.35;15.38;;;19.30;99.90;;;;;;5049566;28;20451;-57
2022/10/30 17:27:04;;;;;;;23.35;15.77;;;19.30;99.90;;;;;;5048508;28;21112;-54
2022/10/30 17:29:35;;;;;;;23.17;16.80;;;19.30;99.90;;;;;;5048225;28;20833;-54
2022/10/30 17:32:03;;;;;;;22.00;16.20;;;19.10;99.90;;;;;;5045970;28;20432;-57
2022/10/30 17:34:29;;;;;;;21.27;15.95;;;19.00;99.90;;;;;;5046794;28;20394;-57
2022/10/30 17:36:58;;;;;;;22.33;16.63;;;19.00;99.90;;;;;;5046770;28;20379;-57
2022/10/30 17:39:24;;;;;;;23.48;16.17;;;19.00;99.90;;;;;;5047065;28;20453;-56
2022/10/30 17:41:53;;;;;;;20.65;16.38;;;19.00;99.90;;;;;;5051518;28;20593;-54
2022/10/30 17:44:22;;;;;;;22.13;16.17;;;19.00;99.90;;;;;;5053015;28;20816;-56
2022/10/30 17:46:49;;;;;;;26.48;16.13;;;18.90;99.90;;;;;;5052307;28;20419;-54
2022/10/30 17:49:26;;;;;;;23.10;15.93;;;18.90;99.90;;;;;;5051207;28;20410;-56
2022/10/30 17:51:52;;;;;;;23.02;16.35;;;18.80;99.90;;;;;;5051138;28;20455;-57
2022/10/30 17:54:18;;;;;;;23.23;16.88;;;18.80;99.90;;;;;;5052578;28;20796;-58
2022/10/30 17:56:43;;;;;;;21.70;17.50;;;18.80;99.90;;;;;;5053492;28;20670;-58
2022/10/30 17:59:09;;;;;;;23.02;17.42;;;18.80;99.90;;;;;;5054779;28;20729;-57
2022/10/30 18:01:34;;;;;;;21.60;16.27;;;18.70;99.90;;;;;;5056563;28;20731;-58
2022/10/30 18:04:00;;;;;;;23.50;16.83;;;18.70;99.90;;;;;;5058730;28;20491;-58
2022/10/30 18:06:27;;;;;;;21.30;16.53;;;18.60;99.90;;;;;;5059519;28;20573;-58
2022/10/30 18:08:53;;;;;;;25.95;17.17;;;18.60;99.90;;;;;;5058203;28;20449;-53
2022/10/30 18:11:21;;;;;;;24.20;17.90;;;18.60;99.90;;;;;;5056832;28;20411;-55
2022/10/30 18:13:48;;;;;;;24.33;17.92;;;18.50;99.90;;;;;;5058805;28;20368;-58
2022/10/30 18:16:16;;;;;;;23.52;16.48;;;18.40;99.90;;;;;;5059359;28;20927;-57
2022/10/30 18:18:43;;;;;;;22.13;16.52;;;18.40;99.90;;;;;;5061757;28;20410;-56
2022/10/30 18:21:19;;;;;;;27.88;19.17;;;18.40;99.90;;;;;;5061234;28;20566;-56
2022/10/30 18:23:45;;;;;;;23.27;17.45;;;18.30;99.90;;;;;;5062584;28;20480;-57
2022/10/30 18:26:14;;;;;;;22.27;17.80;;;18.30;99.90;;;;;;5064447;28;20403;-56
2022/10/30 18:28:39;;;;;;;24.60;16.73;;;18.30;99.90;;;;;;5063850;28;20760;-59
2022/10/30 18:31:07;;;;;;;25.13;18.50;;;18.20;99.90;;;;;;5066781;28;20496;-58
2022/10/30 18:33:33;;;;;;;23.55;18.88;;;18.20;99.90;;;;;;5065781;28;20466;-57
2022/10/30 18:35:58;;;;;;;23.97;17.43;;;18.10;99.90;;;;;;5064979;28;20400;-58
2022/10/30 18:38:24;;;;;;;28.73;17.40;;;18.10;99.90;;;;;;5062881;28;20473;-60
2022/10/30 18:40:50;;;;;;;23.67;18.47;;;18.10;99.90;;;;;;5062287;28;20460;-59
2022/10/30 18:43:15;;;;;;;23.80;18.23;;;17.90;99.90;;;;;;5062957;28;20388;-55
2022/10/30 18:45:42;;;;;;;24.15;17.02;;;17.80;99.90;;;;;;5065623;28;20419;-59
2022/10/30 18:48:09;;;;;;;20.95;16.77;;;17.80;99.90;;;;;;5065495;28;20395;-59
2022/10/30 18:50:35;;;;;;;25.02;17.23;;;17.80;99.90;;;;;;5064185;28;20475;-59
2022/10/30 18:53:05;;;;;;;22.38;17.27;;;17.90;99.90;;;;;;5064282;28;20419;-58
2022/10/30 18:55:38;;;;;;;26.88;18.52;;;17.90;99.90;;;;;;5065016;28;20379;-60
2022/10/30 18:58:05;;;;;;;27.10;18.88;;;17.80;99.90;;;;;;5065090;28;20396;-60
2022/10/30 19:00:32;;;;;;;22.58;17.52;;;17.80;99.90;;;;;;5064695;28;20384;-59
2022/10/30 19:02:59;;;;;;;24.90;18.52;;;17.80;99.90;;;;;;5065444;28;20849;-58
2022/10/30 19:05:38;;;;;;;26.65;19.23;;;17.80;99.90;;;;;;5065436;28;20878;-57
2022/10/30 19:08:04;;;;;;;25.05;18.88;;;17.70;99.90;;;;;;5065711;28;20392;-59
2022/10/30 19:10:32;;;;;;;27.38;19.02;;;17.70;99.90;;;;;;5064508;28;20387;-59
2022/10/30 19:12:59;;;;;;;24.83;18.35;;;17.70;99.90;;;;;;5065175;28;20833;-59
2022/10/30 19:15:30;;;;;;;25.75;18.95;;;17.70;99.90;;;;;;5063384;28;20376;-58
2022/10/30 19:17:56;;;;;;;27.00;18.75;;;17.60;99.90;;;;;;5062365;28;20395;-57
2022/10/30 19:20:21;;;;;;;26.65;19.35;;;17.50;99.90;;;;;;5055861;28;20384;-56
2022/10/30 19:22:47;;;;;;;23.97;18.50;;;17.50;99.90;;;;;;5053475;28;20476;-58
2022/10/30 19:25:15;;;;;;;27.67;18.60;;;17.50;99.90;;;;;;5049776;28;20418;-57
2022/10/30 19:27:40;;;;;;;24.08;18.27;;;17.40;99.90;;;;;;5047094;28;20605;-55
2022/10/30 19:30:07;;;;;;;24.60;19.40;;;17.40;99.90;;;;;;5054274;28;20379;-58
2022/10/30 19:32:32;;;;;;;24.20;18.42;;;17.40;99.90;;;;;;5056678;28;20424;-55
2022/10/30 19:34:58;;;;;;;25.80;19.40;;;17.40;99.90;;;;;;5063696;28;20919;-56
2022/10/30 19:37:24;;;;;;;26.05;18.48;;;17.40;99.90;;;;;;5063066;28;20467;-58
2022/10/30 19:39:49;;;;;;;28.30;19.07;;;17.30;99.90;;;;;;5063760;28;20475;-55
2022/10/30 19:42:15;;;;;;;25.40;17.77;;;17.30;99.90;;;;;;5067112;28;20387;-58
2022/10/30 19:44:40;;;;;;;25.23;18.03;;;17.30;99.90;;;;;;5068749;28;20392;-57
2022/10/30 19:47:09;;;;;;;26.13;18.17;;;17.30;99.90;;;;;;5068503;28;20486;-58
2022/10/30 19:49:35;;;;;;;23.33;18.30;;;17.30;99.90;;;;;;5066634;28;20434;-59
2022/10/30 19:52:00;;;;;;;23.10;18.53;;;17.30;99.90;;;;;;5067630;28;20403;-54
2022/10/30 19:54:26;;;;;;;24.25;17.52;;;17.20;99.90;;;;;;5067109;28;20388;-59
2022/10/30 19:56:52;;;;;;;22.37;17.83;;;17.20;99.90;;;;;;5067219;28;20458;-59
2022/10/30 19:59:17;;;;;;;25.07;18.83;;;17.20;99.90;;;;;;5067433;28;20383;-59
2022/10/30 20:01:43;;;;;;;24.60;18.50;;;17.10;99.90;;;;;;5066473;28;20435;-58
2022/10/30 20:04:09;;;;;;;23.65;18.30;;;17.10;99.90;;;;;;5066902;28;20410;-58
2022/10/30 20:06:34;;;;;;;24.08;19.27;;;17.00;99.90;;;;;;5067753;28;20697;-57
2022/10/30 20:09:01;;;;;;;25.73;19.20;;;17.00;99.90;;;;;;5067499;28;21008;-58
2022/10/30 20:11:27;;;;;;;23.23;18.55;;;17.00;99.90;;;;;;5068338;28;20414;-59
2022/10/30 20:13:53;;;;;;;24.73;19.63;;;17.00;99.90;;;;;;5068538;28;20467;-59
2022/10/30 20:16:18;;;;;;;26.80;19.90;;;17.00;99.90;;;;;;5069623;28;20506;-54
2022/10/30 20:18:44;;;;;;;27.00;20.83;;;16.90;99.90;;;;;;5068917;28;20475;-59
2022/10/30 20:21:12;;;;;;;26.77;19.67;;;16.90;99.90;;;;;;5069295;28;20453;-55
2022/10/30 20:23:37;;;;;;;26.77;20.63;;;16.80;99.90;;;;;;5067612;28;20525;-60
2022/10/30 20:26:23;;;;;;;26.27;20.47;;;16.80;99.90;;;;;;5066141;28;20993;-59
2022/10/30 20:28:48;;;;;;;27.48;21.50;;;16.80;99.90;;;;;;5068005;28;20709;-56
2022/10/30 20:31:14;;;;;;;27.40;21.23;;;16.70;99.90;;;;;;5069000;28;20410;-55
2022/10/30 20:33:39;;;;;;;28.63;22.13;;;16.70;99.90;;;;;;5069108;28;21085;-58
2022/10/30 20:36:05;;;;;;;28.10;21.50;;;16.70;99.90;;;;;;5068511;28;20388;-57
2022/10/30 20:38:32;;;;;;;28.38;22.00;;;16.60;99.90;;;;;;5068841;28;20380;-57
2022/10/30 20:41:00;;;;;;;26.98;21.98;;;16.70;99.90;;;;;;5067914;28;20383;-56
2022/10/30 20:43:30;;;;;;;30.05;21.52;;;16.70;99.90;;;;;;5068688;28;20459;-56
2022/10/30 20:45:57;;;;;;;31.93;23.17;;;16.60;99.90;;;;;;5068804;28;20692;-57
2022/10/30 20:48:23;;;;;;;30.63;22.52;;;16.60;99.90;;;;;;5064476;28;20430;-57
2022/10/30 20:50:54;;;;;;;31.60;22.80;;;16.50;99.90;;;;;;5062834;28;20447;-56
2022/10/30 20:53:20;;;;;;;33.22;22.77;;;16.50;99.90;;;;;;5063284;28;20387;-55
2022/10/30 20:55:45;;;;;;;31.03;22.87;;;16.50;99.90;;;;;;5062872;28;20391;-55
2022/10/30 20:58:11;;;;;;;27.03;22.17;;;16.50;99.90;;;;;;5062378;28;20886;-56
2022/10/30 21:00:37;;;;;;;31.03;23.17;;;16.40;99.90;;;;;;5061613;28;20802;-54
2022/10/30 21:03:04;;;;;;;27.53;21.30;;;16.40;99.90;;;;;;5065350;28;20396;-57
2022/10/30 21:05:35;;;;;;;30.38;22.48;;;16.30;99.90;;;;;;5068377;28;20388;-58
2022/10/30 21:08:02;;;;;;;27.23;22.33;;;16.30;99.90;;;;;;5068452;28;20456;-57
2022/10/30 21:10:28;;;;;;;28.48;23.23;;;16.30;99.90;;;;;;5066952;28;20380;-53
2022/10/30 21:12:53;;;;;;;28.23;21.88;;;16.30;99.90;;;;;;5067276;28;20384;-58
2022/10/30 21:15:19;;;;;;;28.90;22.20;;;16.30;99.90;;;;;;5068429;28;20384;-56
2022/10/30 21:17:44;;;;;;;28.77;23.13;;;16.20;99.90;;;;;;5068790;28;20407;-56
2022/10/30 21:20:10;;;;;;;30.85;22.30;;;16.20;99.90;;;;;;5068653;28;21089;-56
2022/10/30 21:22:35;;;;;;;28.20;22.20;;;16.20;99.90;;;;;;5066542;28;20372;-55
2022/10/30 21:25:01;;;;;;;26.23;21.73;;;16.20;99.90;;;;;;5066722;28;20392;-55
2022/10/30 21:27:26;;;;;;;29.70;23.47;;;16.20;99.90;;;;;;5066231;28;20787;-56
2022/10/30 21:29:52;;;;;;;30.73;23.37;;;16.10;99.90;;;;;;5065324;28;20383;-57
2022/10/30 21:32:18;;;;;;;29.70;22.37;;;16.00;99.90;;;;;;5064061;28;20485;-53
2022/10/30 21:34:43;;;;;;;29.80;23.87;;;16.00;99.90;;;;;;5064671;28;20534;-57
2022/10/30 21:37:08;;;;;;;30.23;22.58;;;16.00;99.90;;;;;;5064148;28;20384;-56
2022/10/30 21:39:34;;;;;;;30.20;24.10;;;16.00;99.90;;;;;;5063778;28;20980;-59
2022/10/30 21:41:59;;;;;;;28.77;23.10;;;15.90;99.90;;;;;;5063900;28;20675;-58
2022/10/30 21:44:25;;;;;;;27.40;22.13;;;15.90;99.90;;;;;;5064835;28;20396;-58
2022/10/30 21:46:50;;;;;;;28.30;22.83;;;15.90;99.90;;;;;;5068118;28;20434;-59
2022/10/30 21:49:19;;;;;;;29.43;22.87;;;15.80;99.90;;;;;;5064136;28;20457;-57
2022/10/30 21:51:46;;;;;;;28.15;22.52;;;15.80;99.90;;;;;;5066034;28;20400;-57
2022/10/30 21:54:13;;;;;;;29.53;22.63;;;15.80;99.90;;;;;;5066930;28;20380;-57
2022/10/30 21:56:38;;;;;;;25.50;20.90;;;15.80;99.90;;;;;;5066495;28;20391;-57
2022/10/30 21:59:05;;;;;;;28.58;21.80;;;15.80;99.90;;;;;;5067780;28;20384;-57
2022/10/30 22:01:33;;;;;;;30.43;22.40;;;15.80;99.90;;;;;;5068962;28;20395;-56
2022/10/30 22:04:00;;;;;;;25.90;21.63;;;15.80;99.90;;;;;;5070692;28;20556;-57
2022/10/30 22:06:26;;;;;;;29.42;22.67;;;15.70;99.90;;;;;;5069689;28;20679;-57
2022/10/30 22:08:53;;;;;;;29.55;23.25;;;15.70;99.90;;;;;;5068322;28;20812;-57
2022/10/30 22:11:21;;;;;;;27.73;22.58;;;15.70;99.90;;;;;;5068441;28;20446;-59
2022/10/30 22:13:47;;;;;;;31.52;22.92;;;15.60;99.90;;;;;;5069049;28;20660;-57
2022/10/30 22:16:13;;;;;;;27.47;22.63;;;15.60;99.90;;;;;;5069298;28;20452;-57
2022/10/30 22:18:39;;;;;;;27.30;22.00;;;15.50;99.90;;;;;;5069121;28;20388;-58
2022/10/30 22:21:08;;;;;;;27.20;22.33;;;15.50;99.90;;;;;;5068143;28;20379;-56
2022/10/30 22:23:34;;;;;;;25.00;22.13;;;15.40;99.90;;;;;;5068068;28;20416;-58
2022/10/30 22:26:13;;;;;;;26.17;21.80;;;15.50;99.90;;;;;;5068801;28;20387;-57
2022/10/30 22:28:38;;;;;;;28.98;22.75;;;15.40;99.90;;;;;;5066553;28;20387;-59
2022/10/30 22:31:07;;;;;;;27.17;21.00;;;15.40;99.90;;;;;;5066491;28;20419;-58
2022/10/30 22:33:33;;;;;;;28.35;22.80;;;15.40;99.90;;;;;;5067620;28;20813;-59
2022/10/30 22:36:02;;;;;;;24.70;20.92;;;15.40;99.90;;;;;;5068068;28;21002;-58
2022/10/30 22:38:28;;;;;;;26.30;22.15;;;15.40;99.90;;;;;;5067765;28;20399;-58
2022/10/30 22:40:53;;;;;;;29.95;21.42;;;15.40;99.90;;;;;;5065621;28;20438;-58
2022/10/30 22:43:19;;;;;;;26.07;22.00;;;15.40;99.90;;;;;;5066382;28;20449;-58
2022/10/30 22:45:51;;;;;;;25.80;20.90;;;15.40;99.90;;;;;;5068077;28;20376;-58
2022/10/30 22:48:17;;;;;;;27.08;21.50;;;15.30;99.90;;;;;;5066405;28;20399;-58
2022/10/30 22:50:42;;;;;;;27.63;21.77;;;15.30;99.90;;;;;;5064215;28;20396;-56
2022/10/30 22:53:08;;;;;;;30.33;21.37;;;15.30;99.90;;;;;;5064237;28;20468;-57
2022/10/30 22:55:33;;;;;;;26.83;20.80;;;15.30;99.90;;;;;;5063250;28;20379;-58
2022/10/30 22:57:59;;;;;;;26.13;21.13;;;15.20;99.90;;;;;;5064754;28;20417;-57
2022/10/30 23:00:26;;;;;;;28.17;21.13;;;15.20;99.90;;;;;;5064327;28;20442;-60
2022/10/30 23:02:52;;;;;;;28.73;22.02;;;15.20;99.90;;;;;;5069137;28;20391;-58
2022/10/30 23:05:18;;;;;;;24.67;19.95;;;15.20;99.90;;;;;;5068942;28;20702;-59
2022/10/30 23:07:43;;;;;;;27.83;19.73;;;15.10;99.90;;;;;;5065814;28;20779;-58
2022/10/30 23:10:09;;;;;;;28.17;21.00;;;15.10;99.90;;;;;;5061604;28;20423;-58
2022/10/30 23:12:34;;;;;;;24.27;19.67;;;15.10;99.90;;;;;;5053028;28;20503;-59
2022/10/30 23:15:00;;;;;;;30.50;18.87;;;15.10;99.90;;;;;;5056128;28;20406;-56
2022/10/30 23:17:25;;;;;;;22.10;18.40;;;15.10;99.90;;;;;;5044512;28;20391;-56
2022/10/30 23:19:51;;;;;;;22.23;17.87;;;15.10;99.90;;;;;;5039754;28;20749;-56
2022/10/30 23:22:16;;;;;;;18.70;16.60;;;15.10;99.90;;;;;;5038613;28;20651;-56
2022/10/30 23:24:42;;;;;;;23.07;16.90;;;15.10;99.90;;;;;;5038712;28;20642;-58
2022/10/30 23:27:07;;;;;;;22.67;17.50;;;15.20;99.90;;;;;;5047909;28;20379;-59
2022/10/30 23:29:33;;;;;;;20.70;16.20;;;15.10;99.90;;;;;;5052293;28;20384;-58
2022/10/30 23:31:59;;;;;;;17.73;15.27;;;15.10;99.90;;;;;;5059992;28;20470;-56
2022/10/30 23:34:24;;;;;;;19.13;16.25;;;15.10;99.90;;;;;;5068766;28;20390;-59
2022/10/30 23:36:49;;;;;;;19.90;16.53;;;15.00;99.90;;;;;;5068079;28;20388;-59
2022/10/30 23:39:16;;;;;;;17.13;15.03;;;15.00;99.90;;;;;;5067953;28;20395;-58
2022/10/30 23:41:43;;;;;;;18.10;15.50;;;15.00;99.90;;;;;;5070045;28;20491;-59
2022/10/30 23:44:13;;;;;;;18.87;14.87;;;14.90;99.90;;;;;;5070461;28;20391;-54
2022/10/30 23:46:39;;;;;;;18.80;15.65;;;14.90;99.90;;;;;;5067551;28;20759;-57
2022/10/30 23:49:04;;;;;;;17.27;14.87;;;14.90;99.90;;;;;;5067177;28;20461;-56
2022/10/30 23:51:30;;;;;;;17.47;14.40;;;14.90;99.90;;;;;;5067161;28;20407;-51
2022/10/30 23:53:56;;;;;;;16.63;14.05;;;14.90;99.90;;;;;;5066081;28;20395;-57
2022/10/30 23:56:22;;;;;;;16.98;14.40;;;14.90;99.90;;;;;;5070315;28;20383;-58
2022/10/30 23:58:49;;;;;;;22.02;15.15;;;14.80;99.90;;;;;;5069521;28;20671;-57
